Weather at South Pole Station Airport

Public forecast

Using degrees Celsius for public forecast. Weather courtesy of forecast.io.

Current aviation weather report (METAR) for South Pole Station Airport

2023/02/03 08:50 (retrieved 56 minutes ago)

NZSP 030850Z 04011KT 9999 IC SCT060 M34/ A2844 RMK CLN AIR 03013KT ALL WNDS GRID SDG/HDG

Aviation forecast (TAF) for South Pole Station Airport

2023/02/03 09:57 (retrieved 0 seconds ago)

TAF TAF NZSP 030855Z 0309/0409 03012KT 9999 IC SCT020 BKN080 QNH2845INS WND 04007KT AFT 0316 ALL WINDS GRID TEMPO 0311/0317 4000 -SG BR BKN015 BKN050